createdAt,value
2018-11-05T00:02:21.794Z,5.80
2018-11-05T00:04:49.999Z,6.20
2018-11-05T00:07:18.202Z,6.65
2018-11-05T00:09:46.381Z,6.30
2018-11-05T00:12:14.565Z,5.97
2018-11-05T00:14:42.793Z,5.80
2018-11-05T00:17:11.067Z,6.43
2018-11-05T00:19:39.289Z,7.00
2018-11-05T00:22:08.142Z,6.83
2018-11-05T00:24:36.375Z,6.97
2018-11-05T00:27:04.704Z,6.53
2018-11-05T00:29:34.069Z,6.35
2018-11-05T00:32:02.318Z,6.97
2018-11-05T00:34:30.528Z,7.03
2018-11-05T00:36:58.747Z,6.60
2018-11-05T00:39:27.036Z,6.28
2018-11-05T00:41:55.267Z,6.57
2018-11-05T00:44:23.539Z,6.55
2018-11-05T00:46:52.122Z,7.60
2018-11-05T00:49:20.320Z,6.67
2018-11-05T00:51:48.571Z,6.47
2018-11-05T00:54:16.803Z,6.15
2018-11-05T00:56:45.022Z,7.07
2018-11-05T00:59:13.359Z,6.37
2018-11-05T01:01:42.071Z,7.37
2018-11-05T01:04:10.980Z,6.78
2018-11-05T01:06:39.293Z,7.33
2018-11-05T01:09:07.757Z,7.10
2018-11-05T01:11:36.009Z,7.27
2018-11-05T01:14:04.474Z,7.80
2018-11-05T01:16:32.703Z,6.93
2018-11-05T01:19:00.882Z,7.05
2018-11-05T01:21:29.085Z,6.23
2018-11-05T01:23:57.355Z,7.42
2018-11-05T01:26:25.647Z,7.43
2018-11-05T01:28:53.879Z,7.33
2018-11-05T01:31:22.089Z,6.85
2018-11-05T01:33:50.359Z,6.65
2018-11-05T01:36:18.594Z,6.53
2018-11-05T01:38:46.861Z,6.92
2018-11-05T01:41:15.092Z,6.43
2018-11-05T01:43:43.314Z,7.55
2018-11-05T01:46:11.571Z,6.70
2018-11-05T01:48:40.464Z,7.10
2018-11-05T01:51:08.765Z,7.30
2018-11-05T01:53:36.990Z,8.08
2018-11-05T01:56:05.894Z,7.60
2018-11-05T01:58:34.112Z,6.10
2018-11-05T02:01:02.360Z,6.77
2018-11-05T02:03:30.567Z,7.45
2018-11-05T02:05:58.810Z,6.53
2018-11-05T02:08:27.020Z,6.83
2018-11-05T02:10:55.240Z,7.00
2018-11-05T02:13:23.595Z,6.70
2018-11-05T02:15:51.827Z,6.47
2018-11-05T02:18:20.024Z,6.55
2018-11-05T02:20:48.255Z,6.77
2018-11-05T02:23:16.495Z,6.75
2018-11-05T02:25:44.684Z,6.77
2018-11-05T02:28:12.918Z,6.62
2018-11-05T02:30:41.144Z,6.95
2018-11-05T02:33:12.277Z,5.62
2018-11-05T02:35:40.497Z,6.00
2018-11-05T02:38:10.280Z,7.78
2018-11-05T02:40:38.482Z,6.40
2018-11-05T02:43:06.673Z,6.47
2018-11-05T02:45:34.907Z,6.10
2018-11-05T02:48:03.118Z,5.78
2018-11-05T02:50:31.316Z,6.07
2018-11-05T02:52:59.520Z,6.22
2018-11-05T02:55:27.776Z,5.50
2018-11-05T02:57:56.001Z,6.35
2018-11-05T03:00:24.228Z,6.33
2018-11-05T03:02:52.442Z,6.20
2018-11-05T03:05:20.866Z,6.30
2018-11-05T03:07:49.714Z,7.37
2018-11-05T03:10:19.309Z,7.22
2018-11-05T03:12:48.138Z,6.05
2018-11-05T03:15:17.437Z,7.33
2018-11-05T03:17:45.626Z,6.08
2018-11-05T03:20:14.791Z,6.25
2018-11-05T03:22:43.496Z,6.50
2018-11-05T03:25:11.740Z,6.25
2018-11-05T03:27:40.476Z,5.97
2018-11-05T03:30:11.534Z,6.78
2018-11-05T03:32:39.837Z,6.92
2018-11-05T03:35:08.999Z,6.08
2018-11-05T03:37:37.194Z,5.90
2018-11-05T03:40:05.961Z,6.65
2018-11-05T03:42:34.221Z,7.30
2018-11-05T03:45:02.457Z,7.10
2018-11-05T03:47:30.699Z,6.80
2018-11-05T03:49:58.933Z,6.17
2018-11-05T03:52:27.201Z,6.70
2018-11-05T03:54:55.435Z,6.87
2018-11-05T03:57:23.669Z,6.33
2018-11-05T03:59:51.872Z,6.97
2018-11-05T04:02:20.635Z,6.63
2018-11-05T04:04:48.997Z,6.83
2018-11-05T04:07:17.255Z,6.40
2018-11-05T04:09:45.508Z,6.20
2018-11-05T04:12:13.743Z,6.77
2018-11-05T04:14:41.978Z,5.95
2018-11-05T04:17:10.220Z,7.37
2018-11-05T04:19:38.469Z,6.70
2018-11-05T04:22:08.176Z,6.33
2018-11-05T04:24:36.421Z,6.85
2018-11-05T04:27:05.209Z,6.43
2018-11-05T04:29:33.824Z,6.60
2018-11-05T04:32:02.048Z,7.83
2018-11-05T04:34:30.291Z,6.70
2018-11-05T04:36:58.487Z,7.57
2018-11-05T04:39:26.708Z,7.10
2018-11-05T04:41:55.001Z,6.55
2018-11-05T04:44:23.260Z,6.72
2018-11-05T04:46:51.430Z,7.07
2018-11-05T04:49:19.662Z,6.83
2018-11-05T04:51:47.908Z,5.87
2018-11-05T04:54:16.149Z,6.65
2018-11-05T04:56:44.389Z,5.97
2018-11-05T04:59:12.903Z,6.05
2018-11-05T05:01:41.096Z,6.40
2018-11-05T05:04:10.164Z,6.25
2018-11-05T05:06:38.402Z,5.57
2018-11-05T05:09:09.203Z,6.70
2018-11-05T05:11:37.473Z,6.77
2018-11-05T05:14:06.520Z,5.45
2018-11-05T05:16:34.803Z,6.33
2018-11-05T05:19:03.026Z,6.65
2018-11-05T05:21:31.259Z,6.37
2018-11-05T05:23:59.506Z,6.15
2018-11-05T05:26:27.839Z,6.42
2018-11-05T05:28:56.056Z,5.67
2018-11-05T05:31:24.316Z,5.72
2018-11-05T05:33:52.603Z,6.33
2018-11-05T05:36:20.839Z,5.87
2018-11-05T05:38:49.062Z,7.00
2018-11-05T05:41:17.367Z,6.87
2018-11-05T05:43:45.521Z,6.47
2018-11-05T05:46:14.263Z,6.93
2018-11-05T05:48:43.660Z,7.08
2018-11-05T05:51:11.905Z,6.70
2018-11-05T05:53:40.135Z,7.75
2018-11-05T05:56:08.580Z,8.67
2018-11-05T05:58:36.843Z,7.40
2018-11-05T06:01:05.244Z,7.30
2018-11-05T06:03:33.494Z,7.28
2018-11-05T06:06:01.704Z,6.43
2018-11-05T06:08:29.922Z,7.28
2018-11-05T06:10:58.135Z,6.77
2018-11-05T06:13:26.331Z,7.22
2018-11-05T06:15:54.633Z,6.93
2018-11-05T06:18:23.641Z,6.83
2018-11-05T06:20:51.843Z,5.90
2018-11-05T06:23:20.090Z,6.28
2018-11-05T06:25:48.320Z,6.20
2018-11-05T06:28:16.560Z,6.75
2018-11-05T06:30:44.759Z,6.17
2018-11-05T06:33:13.011Z,6.85
2018-11-05T06:35:41.198Z,7.60
2018-11-05T06:38:09.621Z,6.85
2018-11-05T06:40:37.891Z,7.78
2018-11-05T06:43:06.352Z,7.15
2018-11-05T06:45:34.566Z,6.73
2018-11-05T06:48:02.794Z,6.08
2018-11-05T06:50:31.039Z,6.60
2018-11-05T06:52:59.346Z,6.83
2018-11-05T06:55:27.571Z,6.20
2018-11-05T06:57:55.827Z,6.30
2018-11-05T07:00:25.175Z,6.10
2018-11-05T07:02:53.510Z,6.55
2018-11-05T07:05:21.760Z,6.33
2018-11-05T07:07:50.004Z,7.60
2018-11-05T07:10:18.970Z,6.83
2018-11-05T07:12:47.226Z,5.97
2018-11-05T07:15:16.653Z,6.70
2018-11-05T07:17:45.940Z,6.17
2018-11-05T07:20:16.276Z,6.45
2018-11-05T07:22:45.164Z,6.78
2018-11-05T07:25:14.349Z,7.00
2018-11-05T07:27:42.921Z,8.00
2018-11-05T07:30:13.769Z,7.92
2018-11-05T07:32:42.061Z,6.97
2018-11-05T07:35:11.965Z,6.72
2018-11-05T07:37:40.313Z,7.17
2018-11-05T07:40:10.146Z,6.75
2018-11-05T07:42:38.724Z,6.75
2018-11-05T07:45:10.405Z,6.35
2018-11-05T07:47:38.652Z,6.47
2018-11-05T07:50:09.166Z,6.62
2018-11-05T07:52:37.376Z,7.70
2018-11-05T07:55:06.739Z,7.40
2018-11-05T07:57:34.945Z,7.58
2018-11-05T08:00:04.879Z,7.12
2018-11-05T08:02:33.169Z,7.90
2018-11-05T08:05:01.341Z,7.28
2018-11-05T08:07:29.586Z,8.33
2018-11-05T08:09:57.800Z,7.62
2018-11-05T08:12:26.374Z,7.17
2018-11-05T08:14:54.625Z,7.22
2018-11-05T08:17:22.845Z,7.23
2018-11-05T08:19:51.087Z,7.45
2018-11-05T08:22:19.312Z,7.80
2018-11-05T08:24:47.507Z,7.75
2018-11-05T08:27:15.711Z,8.33
2018-11-05T08:29:44.254Z,7.72
2018-11-05T08:32:15.413Z,8.20
2018-11-05T08:34:43.662Z,7.87
2018-11-05T08:37:11.956Z,7.97
2018-11-05T08:39:40.204Z,8.88
2018-11-05T08:42:08.478Z,8.33
2018-11-05T08:44:36.735Z,7.63
2018-11-05T08:47:05.014Z,8.13
2018-11-05T08:49:33.265Z,7.08
2018-11-05T08:52:01.521Z,7.87
2018-11-05T08:54:29.714Z,7.93
2018-11-05T08:56:57.907Z,8.27
2018-11-05T08:59:26.719Z,8.58
2018-11-05T09:01:54.941Z,8.90
2018-11-05T09:04:23.159Z,7.70
2018-11-05T09:06:51.373Z,8.53
2018-11-05T09:09:19.619Z,9.53
2018-11-05T09:11:47.942Z,9.23
2018-11-05T09:14:16.496Z,9.73
2018-11-05T09:16:44.720Z,8.57
2018-11-05T09:19:12.941Z,9.08
2018-11-05T09:21:41.165Z,10.63
2018-11-05T09:24:09.374Z,9.60
2018-11-05T09:26:37.646Z,11.87
2018-11-05T09:29:06.392Z,9.30
2018-11-05T09:31:34.599Z,10.87
2018-11-05T09:34:02.909Z,9.33
2018-11-05T09:36:31.130Z,9.60
2018-11-05T09:38:59.356Z,9.63
2018-11-05T09:41:27.562Z,9.73
2018-11-05T09:43:55.804Z,9.68
2018-11-05T09:46:24.063Z,10.40
2018-11-05T09:48:52.816Z,9.63
2018-11-05T09:51:21.041Z,9.40
2018-11-05T09:53:49.292Z,9.60
2018-11-05T09:56:18.764Z,12.10
2018-11-05T09:58:46.987Z,10.82
2018-11-05T10:01:15.220Z,9.63
2018-11-05T10:03:49.033Z,9.30
2018-11-05T10:06:18.244Z,10.47
2018-11-05T10:08:46.444Z,9.37
2018-11-05T10:11:14.717Z,10.23
2018-11-05T10:13:49.447Z,8.93
2018-11-05T10:16:18.611Z,8.67
2018-11-05T10:18:46.780Z,9.90
2018-11-05T10:21:14.979Z,9.13
2018-11-05T10:23:43.170Z,9.73
2018-11-05T10:26:11.414Z,9.20
2018-11-05T10:28:39.606Z,10.20
2018-11-05T10:31:07.840Z,8.97
2018-11-05T10:33:36.185Z,9.03
2018-11-05T10:36:04.567Z,9.20
2018-11-05T10:38:32.820Z,8.87
2018-11-05T10:41:01.062Z,8.53
2018-11-05T10:43:29.301Z,9.58
2018-11-05T10:45:57.574Z,10.33
2018-11-05T10:48:26.664Z,10.40
2018-11-05T10:50:54.893Z,10.17
2018-11-05T10:53:23.158Z,9.73
2018-11-05T10:55:51.532Z,8.53
2018-11-05T10:58:20.225Z,11.07
2018-11-05T11:00:53.865Z,8.50
2018-11-05T11:03:22.147Z,7.60
2018-11-05T11:05:50.383Z,8.23
2018-11-05T11:08:19.772Z,9.47
2018-11-05T11:10:48.024Z,8.63
2018-11-05T11:13:16.255Z,10.23
2018-11-05T11:15:44.483Z,9.97
2018-11-05T11:18:12.856Z,9.80
2018-11-05T11:20:41.161Z,11.67
2018-11-05T11:23:09.371Z,9.00
2018-11-05T11:25:37.562Z,9.53
2018-11-05T11:28:06.219Z,9.90
2018-11-05T11:30:34.313Z,10.70
2018-11-05T11:33:02.521Z,10.70
2018-11-05T11:35:30.775Z,10.53
2018-11-05T11:37:58.976Z,10.70
2018-11-05T11:40:27.261Z,9.87
2018-11-05T11:42:55.545Z,10.97
2018-11-05T11:45:24.438Z,9.93
2018-11-05T11:47:52.709Z,11.60
2018-11-05T11:50:21.325Z,11.30
2018-11-05T11:52:50.012Z,11.43
2018-11-05T11:55:20.346Z,11.03
2018-11-05T11:57:48.560Z,10.80
2018-11-05T12:00:20.594Z,10.43
2018-11-05T12:02:49.318Z,10.03
2018-11-05T12:05:17.702Z,11.00
2018-11-05T12:07:45.816Z,10.17
2018-11-05T12:10:17.827Z,10.30
2018-11-05T12:12:52.700Z,11.33
2018-11-05T12:15:21.781Z,10.80
2018-11-05T12:17:51.059Z,10.07
2018-11-05T12:20:20.843Z,9.43
2018-11-05T12:22:49.560Z,12.33
2018-11-05T12:25:17.821Z,10.80
2018-11-05T12:27:46.024Z,10.43
2018-11-05T12:30:19.637Z,10.73
2018-11-05T12:32:48.727Z,10.10
2018-11-05T12:35:16.999Z,9.23
2018-11-05T12:37:46.307Z,10.80
2018-11-05T12:40:16.281Z,9.27
2018-11-05T12:42:45.708Z,10.63
2018-11-05T12:45:13.944Z,11.27
2018-11-05T12:47:42.164Z,9.80
2018-11-05T12:50:12.853Z,9.13
2018-11-05T12:52:41.493Z,9.57
2018-11-05T12:55:10.266Z,8.83
2018-11-05T12:57:38.544Z,10.57
2018-11-05T13:00:10.122Z,10.38
2018-11-05T13:02:38.334Z,9.73
2018-11-05T13:05:07.996Z,9.13
2018-11-05T13:07:36.204Z,11.50
2018-11-05T13:10:05.755Z,11.43
2018-11-05T13:12:34.841Z,11.53
2018-11-05T13:15:03.202Z,10.03
2018-11-05T13:17:31.904Z,11.17
2018-11-05T13:20:00.145Z,8.83
2018-11-05T13:22:28.763Z,11.10
2018-11-05T13:24:56.894Z,10.03
2018-11-05T13:27:25.179Z,10.13
2018-11-05T13:29:53.443Z,8.93
2018-11-05T13:32:21.960Z,11.73
2018-11-05T13:34:50.231Z,9.27
2018-11-05T13:37:18.855Z,11.10
2018-11-05T13:39:46.767Z,8.93
2018-11-05T13:42:14.964Z,9.73
2018-11-05T13:44:43.406Z,8.37
2018-11-05T13:47:12.368Z,10.07
2018-11-05T13:49:40.053Z,9.60
2018-11-05T13:52:08.250Z,10.50
2018-11-05T13:54:36.478Z,9.43
2018-11-05T13:57:04.661Z,10.30
2018-11-05T13:59:32.891Z,9.43
2018-11-05T14:02:01.125Z,10.20
2018-11-05T14:04:29.389Z,9.17
2018-11-05T14:06:57.570Z,8.83
2018-11-05T14:09:25.861Z,10.20
2018-11-05T14:11:54.854Z,10.07
2018-11-05T14:14:23.537Z,9.20
2018-11-05T14:16:51.828Z,10.77
2018-11-05T14:19:20.090Z,11.00
2018-11-05T14:21:48.534Z,9.33
2018-11-05T14:24:16.909Z,9.50
2018-11-05T14:26:45.108Z,10.67
2018-11-05T14:29:13.968Z,9.97
2018-11-05T14:31:41.813Z,10.53
2018-11-05T14:34:10.112Z,9.77
2018-11-05T14:36:38.796Z,9.97
2018-11-05T14:39:09.543Z,9.93
2018-11-05T14:41:37.790Z,11.07
2018-11-05T14:44:06.229Z,8.93
2018-11-05T14:46:34.733Z,8.70
2018-11-05T14:49:02.926Z,9.87
2018-11-05T14:51:31.182Z,9.23
2018-11-05T14:53:59.388Z,8.67
2018-11-05T14:56:27.574Z,9.13
2018-11-05T14:58:56.175Z,10.30
2018-11-05T15:01:24.385Z,9.80
2018-11-05T15:03:52.818Z,9.77
2018-11-05T15:06:23.471Z,10.50
2018-11-05T15:08:51.700Z,10.97
2018-11-05T15:11:19.937Z,11.80
2018-11-05T15:13:48.176Z,10.00
2018-11-05T15:16:16.400Z,10.20
2018-11-05T15:18:45.041Z,10.17
2018-11-05T15:21:12.958Z,11.47
2018-11-05T15:23:41.115Z,10.97
2018-11-05T15:26:09.491Z,11.53
2018-11-05T15:28:37.698Z,9.80
2018-11-05T15:31:06.327Z,10.60
2018-11-05T15:33:34.563Z,9.23
2018-11-05T15:36:02.804Z,9.20
2018-11-05T15:38:31.066Z,9.77
2018-11-05T15:40:59.260Z,9.23
2018-11-05T15:43:27.509Z,9.30
2018-11-05T15:45:55.698Z,8.53
2018-11-05T15:48:23.923Z,10.03
2018-11-05T15:50:52.163Z,9.73
2018-11-05T15:53:21.537Z,9.00
2018-11-05T15:55:49.136Z,8.80
2018-11-05T15:58:17.342Z,8.57
2018-11-05T16:00:45.556Z,8.33
2018-11-05T16:03:13.756Z,9.30
2018-11-05T16:05:41.979Z,9.43
2018-11-05T16:08:10.231Z,9.10
2018-11-05T16:10:38.412Z,10.10
2018-11-05T16:13:06.628Z,9.57
2018-11-05T16:15:34.861Z,10.40
2018-11-05T16:18:03.129Z,9.83
2018-11-05T16:20:31.928Z,10.63
2018-11-05T16:23:00.167Z,10.50
2018-11-05T16:25:28.440Z,8.73
2018-11-05T16:27:56.630Z,8.93
2018-11-05T16:30:24.855Z,10.07
2018-11-05T16:32:53.142Z,9.57
2018-11-05T16:35:21.531Z,9.83
2018-11-05T16:37:49.765Z,8.80
2018-11-05T16:40:18.791Z,9.57
2018-11-05T16:42:48.380Z,9.77
2018-11-05T16:45:16.696Z,9.27
2018-11-05T16:47:45.260Z,9.77
2018-11-05T16:50:16.515Z,10.07
2018-11-05T16:52:44.775Z,9.60
2018-11-05T16:55:13.884Z,8.97
2018-11-05T16:57:42.679Z,9.53
2018-11-05T17:00:11.488Z,9.93
2018-11-05T17:02:40.905Z,9.13
2018-11-05T17:05:08.992Z,8.53
2018-11-05T17:07:37.243Z,8.63
2018-11-05T17:10:06.744Z,8.93
2018-11-05T17:12:35.026Z,9.07
2018-11-05T17:15:03.305Z,10.03
2018-11-05T17:17:31.582Z,9.03
2018-11-05T17:19:59.848Z,9.53
2018-11-05T17:22:28.064Z,9.20
2018-11-05T17:24:56.261Z,8.43
2018-11-05T17:27:24.467Z,9.37
2018-11-05T17:29:52.720Z,9.73
2018-11-05T17:32:21.228Z,9.80
2018-11-05T17:34:49.482Z,10.07
2018-11-05T17:37:18.051Z,9.67
2018-11-05T17:39:46.325Z,10.98
2018-11-05T17:42:14.555Z,11.90
2018-11-05T17:44:42.801Z,10.43
2018-11-05T17:47:11.013Z,10.37
2018-11-05T17:49:39.250Z,10.23
2018-11-05T17:52:07.457Z,10.57
2018-11-05T17:54:36.306Z,10.70
2018-11-05T17:57:04.667Z,10.70
2018-11-05T17:59:33.324Z,10.47
2018-11-05T18:02:01.592Z,10.43
2018-11-05T18:04:30.038Z,10.80
2018-11-05T18:06:58.146Z,10.43
2018-11-05T18:09:26.405Z,10.27
2018-11-05T18:11:54.619Z,10.67
2018-11-05T18:14:23.195Z,10.27
2018-11-05T18:16:51.431Z,9.83
2018-11-05T18:19:19.675Z,9.40
2018-11-05T18:21:47.896Z,9.73
2018-11-05T18:24:16.200Z,9.70
2018-11-05T18:26:44.391Z,9.73
2018-11-05T18:32:44.109Z,10.35
2018-11-05T18:35:13.108Z,9.18
2018-11-05T18:37:42.191Z,9.63
2018-11-05T18:40:13.168Z,9.73
2018-11-05T18:42:42.592Z,9.40
2018-11-05T18:45:11.136Z,8.90
2018-11-05T18:47:39.353Z,9.15
2018-11-05T18:50:10.323Z,9.48
2018-11-05T18:52:38.545Z,11.78
2018-11-05T18:55:08.446Z,12.15
2018-11-05T18:57:37.027Z,12.93
2018-11-05T19:00:08.993Z,12.23
2018-11-05T19:02:37.433Z,11.65
2018-11-05T19:05:05.657Z,9.73
2018-11-05T19:07:33.882Z,10.45
2018-11-05T19:10:02.117Z,11.03
2018-11-05T19:12:30.354Z,11.10
2018-11-05T19:14:58.613Z,10.50
2018-11-05T19:17:26.833Z,10.50
2018-11-05T19:19:55.052Z,10.77
2018-11-05T19:22:23.556Z,10.97
2018-11-05T19:24:51.829Z,11.18
2018-11-05T19:27:20.109Z,11.75
2018-11-05T19:29:48.353Z,10.60
2018-11-05T19:32:16.542Z,10.57
2018-11-05T19:34:44.774Z,11.20
2018-11-05T19:37:13.010Z,10.05
2018-11-05T19:39:41.272Z,10.05
2018-11-05T19:42:09.584Z,10.47
2018-11-05T19:44:37.776Z,10.38
2018-11-05T19:47:06.119Z,10.47
2018-11-05T19:49:34.618Z,11.50
2018-11-05T19:52:02.784Z,10.97
2018-11-05T19:54:31.076Z,11.70
2018-11-05T19:56:59.311Z,11.57
2018-11-05T19:59:28.688Z,13.25
2018-11-05T20:01:56.956Z,12.73
2018-11-05T20:04:25.592Z,12.70
2018-11-05T20:06:53.787Z,11.83
2018-11-05T20:09:22.026Z,13.30
2018-11-05T20:11:50.293Z,12.73
2018-11-05T20:14:18.526Z,12.25
2018-11-05T20:16:46.708Z,13.97
2018-11-05T20:19:15.019Z,14.10
2018-11-05T20:21:44.076Z,11.83
2018-11-05T20:24:12.436Z,12.30
2018-11-05T20:26:40.778Z,11.10
2018-11-05T20:29:09.024Z,11.93
2018-11-05T20:31:37.590Z,12.00
2018-11-05T20:34:05.744Z,11.05
2018-11-05T20:36:34.673Z,11.70
2018-11-05T20:39:02.903Z,11.90
2018-11-05T20:41:31.168Z,12.53
2018-11-05T20:43:59.434Z,12.25
2018-11-05T20:46:31.591Z,12.40
2018-11-05T20:48:59.864Z,12.60
2018-11-05T20:51:28.053Z,12.23
2018-11-05T20:53:56.306Z,10.88
2018-11-05T20:56:24.886Z,11.73
2018-11-05T20:58:53.690Z,12.15
2018-11-05T21:01:21.907Z,11.43
2018-11-05T21:03:50.149Z,11.50
2018-11-05T21:06:18.432Z,12.30
2018-11-05T21:08:46.679Z,12.03
2018-11-05T21:11:15.154Z,10.68
2018-11-05T21:13:43.375Z,11.45
2018-11-05T21:16:11.555Z,11.67
2018-11-05T21:18:39.816Z,10.50
2018-11-05T21:21:08.115Z,12.33
2018-11-05T21:23:36.292Z,11.35
2018-11-05T21:26:05.374Z,11.63
2018-11-05T21:28:33.650Z,11.95
2018-11-05T21:31:01.918Z,12.40
2018-11-05T21:33:30.153Z,13.00
2018-11-05T21:35:58.425Z,12.33
2018-11-05T21:38:27.235Z,11.65
2018-11-05T21:40:55.479Z,12.00
2018-11-05T21:43:23.829Z,12.15
2018-11-05T21:45:52.269Z,12.23
2018-11-05T21:48:20.478Z,12.05
2018-11-05T21:50:48.718Z,12.23
2018-11-05T21:53:16.988Z,12.45
2018-11-05T21:55:45.189Z,10.97
2018-11-05T21:58:13.443Z,10.85
2018-11-05T22:00:41.712Z,11.40
2018-11-05T22:03:16.654Z,11.63
2018-11-05T22:05:44.923Z,11.40
2018-11-05T22:08:13.121Z,12.25
2018-11-05T22:10:41.323Z,11.60
2018-11-05T22:13:09.722Z,11.17
2018-11-05T22:15:43.803Z,11.80
2018-11-05T22:18:12.092Z,11.40
2018-11-05T22:20:40.480Z,11.20
2018-11-05T22:23:08.711Z,10.75
2018-11-05T22:25:37.036Z,10.68
2018-11-05T22:28:05.526Z,11.18
2018-11-05T22:30:33.760Z,10.47
2018-11-05T22:33:02.008Z,10.60
2018-11-05T22:35:30.324Z,11.13
2018-11-05T22:37:58.574Z,11.45
2018-11-05T22:40:28.097Z,11.23
2018-11-05T22:42:56.310Z,11.95
2018-11-05T22:45:24.550Z,10.80
2018-11-05T22:47:52.804Z,11.33
2018-11-05T22:50:21.249Z,10.75
2018-11-05T22:52:49.486Z,11.05
2018-11-05T22:55:17.717Z,10.75
2018-11-05T22:57:45.993Z,10.60
2018-11-05T23:00:21.009Z,10.98
2018-11-05T23:02:54.773Z,10.43
2018-11-05T23:05:23.226Z,10.60
2018-11-05T23:07:52.663Z,11.03
2018-11-05T23:10:21.272Z,11.10
2018-11-05T23:12:49.609Z,9.85
2018-11-05T23:15:18.219Z,10.72
2018-11-05T23:17:46.480Z,11.50
2018-11-05T23:20:14.684Z,10.63
2018-11-05T23:22:47.258Z,9.78
2018-11-05T23:25:15.489Z,11.10
2018-11-05T23:27:43.739Z,9.93
2018-11-05T23:30:12.920Z,9.88
2018-11-05T23:32:42.159Z,10.63
2018-11-05T23:35:11.094Z,9.95
2018-11-05T23:37:40.311Z,9.55
2018-11-05T23:40:09.079Z,9.95
2018-11-05T23:42:38.303Z,11.40
2018-11-05T23:45:10.357Z,10.68
2018-11-05T23:47:38.630Z,11.30
2018-11-05T23:50:07.174Z,10.75
2018-11-05T23:52:35.442Z,10.48
2018-11-05T23:55:03.656Z,9.65
2018-11-05T23:57:31.851Z,10.08
